sensor_id;sensor_type;location;lat;lon;timestamp;P1;durP1;ratioP1;P2;durP2;ratioP2
64085;SDS011;50333;47.436;21.390;2022-10-20T00:01:13;4.53;;;1.40;;
64085;SDS011;50333;47.436;21.390;2022-10-20T00:03:43;1.95;;;1.60;;
64085;SDS011;50333;47.436;21.390;2022-10-20T00:06:13;2.70;;;1.30;;
64085;SDS011;50333;47.436;21.390;2022-10-20T00:08:44;3.30;;;1.52;;
64085;SDS011;50333;47.436;21.390;2022-10-20T00:11:13;4.30;;;1.50;;
64085;SDS011;50333;47.436;21.390;2022-10-20T00:13:42;2.37;;;1.20;;
64085;SDS011;50333;47.436;21.390;2022-10-20T00:16:12;1.77;;;1.30;;
64085;SDS011;50333;47.436;21.390;2022-10-20T00:18:40;2.05;;;1.58;;
64085;SDS011;50333;47.436;21.390;2022-10-20T00:21:09;3.95;;;1.60;;
64085;SDS011;50333;47.436;21.390;2022-10-20T00:23:40;2.40;;;1.67;;
64085;SDS011;50333;47.436;21.390;2022-10-20T00:26:09;9.27;;;1.83;;
64085;SDS011;50333;47.436;21.390;2022-10-20T00:28:40;2.80;;;1.60;;
64085;SDS011;50333;47.436;21.390;2022-10-20T00:31:07;1.73;;;1.40;;
64085;SDS011;50333;47.436;21.390;2022-10-20T00:33:35;4.12;;;1.50;;
64085;SDS011;50333;47.436;21.390;2022-10-20T00:36:04;2.83;;;1.65;;
64085;SDS011;50333;47.436;21.390;2022-10-20T00:38:35;2.80;;;1.50;;
64085;SDS011;50333;47.436;21.390;2022-10-20T00:41:03;2.40;;;1.77;;
64085;SDS011;50333;47.436;21.390;2022-10-20T00:43:42;5.78;;;1.60;;
64085;SDS011;50333;47.436;21.390;2022-10-20T00:46:17;1.95;;;1.37;;
64085;SDS011;50333;47.436;21.390;2022-10-20T00:48:48;3.30;;;1.40;;
64085;SDS011;50333;47.436;21.390;2022-10-20T00:51:19;2.45;;;1.80;;
64085;SDS011;50333;47.436;21.390;2022-10-20T00:53:49;2.13;;;1.47;;
64085;SDS011;50333;47.436;21.390;2022-10-20T00:56:20;1.92;;;1.55;;
64085;SDS011;50333;47.436;21.390;2022-10-20T00:58:48;3.00;;;1.45;;
64085;SDS011;50333;47.436;21.390;2022-10-20T01:01:17;2.05;;;1.70;;
64085;SDS011;50333;47.436;21.390;2022-10-20T01:03:47;3.28;;;1.65;;
64085;SDS011;50333;47.436;21.390;2022-10-20T01:06:18;1.83;;;1.52;;
64085;SDS011;50333;47.436;21.390;2022-10-20T01:08:47;1.50;;;1.40;;
64085;SDS011;50333;47.436;21.390;2022-10-20T01:28:34;3.00;;;1.50;;
64085;SDS011;50333;47.436;21.390;2022-10-20T01:31:35;4.20;;;1.52;;
64085;SDS011;50333;47.436;21.390;2022-10-20T01:34:30;2.20;;;1.50;;
64085;SDS011;50333;47.436;21.390;2022-10-20T01:37:04;2.75;;;1.52;;
64085;SDS011;50333;47.436;21.390;2022-10-20T01:40:21;7.47;;;1.73;;
64085;SDS011;50333;47.436;21.390;2022-10-20T01:42:51;2.10;;;1.60;;
64085;SDS011;50333;47.436;21.390;2022-10-20T01:45:23;5.37;;;1.60;;
64085;SDS011;50333;47.436;21.390;2022-10-20T01:47:53;1.65;;;1.50;;
64085;SDS011;50333;47.436;21.390;2022-10-20T01:50:21;2.70;;;1.70;;
64085;SDS011;50333;47.436;21.390;2022-10-20T01:52:55;2.60;;;1.45;;
64085;SDS011;50333;47.436;21.390;2022-10-20T01:55:24;7.32;;;1.92;;
64085;SDS011;50333;47.436;21.390;2022-10-20T02:00:48;1.40;;;1.30;;
64085;SDS011;50333;47.436;21.390;2022-10-20T02:07:01;1.90;;;1.60;;
64085;SDS011;50333;47.436;21.390;2022-10-20T02:09:38;3.28;;;1.80;;
64085;SDS011;50333;47.436;21.390;2022-10-20T02:12:14;2.30;;;1.45;;
64085;SDS011;50333;47.436;21.390;2022-10-20T02:14:44;2.72;;;1.77;;
64085;SDS011;50333;47.436;21.390;2022-10-20T02:17:13;2.80;;;1.60;;
64085;SDS011;50333;47.436;21.390;2022-10-20T02:19:44;2.33;;;1.60;;
64085;SDS011;50333;47.436;21.390;2022-10-20T02:22:14;2.72;;;1.60;;
64085;SDS011;50333;47.436;21.390;2022-10-20T02:24:43;1.70;;;1.55;;
64085;SDS011;50333;47.436;21.390;2022-10-20T02:27:15;2.90;;;1.60;;
64085;SDS011;50333;47.436;21.390;2022-10-20T02:30:05;4.20;;;1.80;;
64085;SDS011;50333;47.436;21.390;2022-10-20T02:35:09;2.05;;;1.70;;
64085;SDS011;50333;47.436;21.390;2022-10-20T02:37:40;3.47;;;1.83;;
64085;SDS011;50333;47.436;21.390;2022-10-20T02:40:09;3.05;;;1.60;;
64085;SDS011;50333;47.436;21.390;2022-10-20T02:42:37;3.72;;;1.75;;
64085;SDS011;50333;47.436;21.390;2022-10-20T02:45:07;1.92;;;1.70;;
64085;SDS011;50333;47.436;21.390;2022-10-20T02:47:35;1.67;;;1.55;;
64085;SDS011;50333;47.436;21.390;2022-10-20T02:50:04;4.45;;;1.70;;
64085;SDS011;50333;47.436;21.390;2022-10-20T02:52:34;2.55;;;1.70;;
64085;SDS011;50333;47.436;21.390;2022-10-20T02:55:03;1.90;;;1.60;;
64085;SDS011;50333;47.436;21.390;2022-10-20T02:57:32;2.12;;;1.60;;
64085;SDS011;50333;47.436;21.390;2022-10-20T03:00:01;2.40;;;1.73;;
64085;SDS011;50333;47.436;21.390;2022-10-20T03:02:29;2.15;;;1.60;;
64085;SDS011;50333;47.436;21.390;2022-10-20T03:04:57;2.17;;;1.73;;
64085;SDS011;50333;47.436;21.390;2022-10-20T03:07:25;4.37;;;2.03;;
64085;SDS011;50333;47.436;21.390;2022-10-20T03:09:56;3.97;;;1.92;;
64085;SDS011;50333;47.436;21.390;2022-10-20T03:12:24;5.57;;;2.10;;
64085;SDS011;50333;47.436;21.390;2022-10-20T03:14:57;5.45;;;2.00;;
64085;SDS011;50333;47.436;21.390;2022-10-20T03:17:25;3.03;;;1.85;;
64085;SDS011;50333;47.436;21.390;2022-10-20T03:19:54;4.43;;;2.30;;
64085;SDS011;50333;47.436;21.390;2022-10-20T03:22:22;3.87;;;1.95;;
64085;SDS011;50333;47.436;21.390;2022-10-20T03:24:50;3.40;;;2.20;;
64085;SDS011;50333;47.436;21.390;2022-10-20T03:27:17;6.03;;;1.83;;
64085;SDS011;50333;47.436;21.390;2022-10-20T03:29:45;6.60;;;2.17;;
64085;SDS011;50333;47.436;21.390;2022-10-20T03:32:13;4.10;;;1.98;;
64085;SDS011;50333;47.436;21.390;2022-10-20T03:34:41;4.80;;;2.00;;
64085;SDS011;50333;47.436;21.390;2022-10-20T03:37:08;6.32;;;2.00;;
64085;SDS011;50333;47.436;21.390;2022-10-20T03:39:36;3.08;;;2.30;;
64085;SDS011;50333;47.436;21.390;2022-10-20T03:42:03;1.90;;;1.75;;
64085;SDS011;50333;47.436;21.390;2022-10-20T03:44:31;3.00;;;1.95;;
64085;SDS011;50333;47.436;21.390;2022-10-20T03:46:59;2.45;;;1.90;;
64085;SDS011;50333;47.436;21.390;2022-10-20T03:49:26;4.25;;;2.00;;
64085;SDS011;50333;47.436;21.390;2022-10-20T03:51:54;3.08;;;2.05;;
64085;SDS011;50333;47.436;21.390;2022-10-20T03:54:22;3.92;;;2.10;;
64085;SDS011;50333;47.436;21.390;2022-10-20T03:56:50;2.33;;;1.80;;
64085;SDS011;50333;47.436;21.390;2022-10-20T03:59:17;4.68;;;2.00;;
64085;SDS011;50333;47.436;21.390;2022-10-20T04:01:45;2.92;;;2.10;;
64085;SDS011;50333;47.436;21.390;2022-10-20T04:04:14;8.80;;;2.35;;
64085;SDS011;50333;47.436;21.390;2022-10-20T04:06:41;3.92;;;1.87;;
64085;SDS011;50333;47.436;21.390;2022-10-20T04:09:09;3.37;;;2.00;;
64085;SDS011;50333;47.436;21.390;2022-10-20T04:11:37;4.80;;;2.22;;
64085;SDS011;50333;47.436;21.390;2022-10-20T04:14:05;3.78;;;2.08;;
64085;SDS011;50333;47.436;21.390;2022-10-20T04:16:32;3.15;;;1.98;;
64085;SDS011;50333;47.436;21.390;2022-10-20T04:19:01;3.85;;;2.20;;
64085;SDS011;50333;47.436;21.390;2022-10-20T04:21:28;3.95;;;2.10;;
64085;SDS011;50333;47.436;21.390;2022-10-20T04:23:56;5.85;;;2.40;;
64085;SDS011;50333;47.436;21.390;2022-10-20T04:26:25;2.20;;;1.85;;
64085;SDS011;50333;47.436;21.390;2022-10-20T04:28:54;5.43;;;2.10;;
64085;SDS011;50333;47.436;21.390;2022-10-20T04:31:23;6.30;;;2.10;;
64085;SDS011;50333;47.436;21.390;2022-10-20T04:33:51;3.65;;;2.00;;
64085;SDS011;50333;47.436;21.390;2022-10-20T04:36:18;2.12;;;1.87;;
64085;SDS011;50333;47.436;21.390;2022-10-20T04:38:46;1.80;;;1.70;;
64085;SDS011;50333;47.436;21.390;2022-10-20T04:41:14;3.75;;;2.10;;
64085;SDS011;50333;47.436;21.390;2022-10-20T04:43:41;3.95;;;1.92;;
64085;SDS011;50333;47.436;21.390;2022-10-20T04:46:09;5.90;;;2.10;;
64085;SDS011;50333;47.436;21.390;2022-10-20T04:48:40;2.47;;;1.90;;
64085;SDS011;50333;47.436;21.390;2022-10-20T04:51:10;4.68;;;2.35;;
64085;SDS011;50333;47.436;21.390;2022-10-20T04:53:39;1.85;;;1.65;;
64085;SDS011;50333;47.436;21.390;2022-10-20T04:56:09;2.15;;;1.73;;
64085;SDS011;50333;47.436;21.390;2022-10-20T04:58:40;3.20;;;1.98;;
64085;SDS011;50333;47.436;21.390;2022-10-20T05:01:09;2.25;;;1.73;;
64085;SDS011;50333;47.436;21.390;2022-10-20T05:03:36;3.08;;;2.00;;
64085;SDS011;50333;47.436;21.390;2022-10-20T05:06:08;4.18;;;1.80;;
64085;SDS011;50333;47.436;21.390;2022-10-20T05:08:37;2.53;;;1.92;;
64085;SDS011;50333;47.436;21.390;2022-10-20T05:11:07;3.22;;;2.20;;
64085;SDS011;50333;47.436;21.390;2022-10-20T05:13:35;6.43;;;2.50;;
64085;SDS011;50333;47.436;21.390;2022-10-20T05:16:03;4.05;;;1.98;;
64085;SDS011;50333;47.436;21.390;2022-10-20T05:18:32;5.30;;;1.95;;
64085;SDS011;50333;47.436;21.390;2022-10-20T05:21:04;11.12;;;1.90;;
64085;SDS011;50333;47.436;21.390;2022-10-20T05:23:40;5.78;;;1.98;;
64085;SDS011;50333;47.436;21.390;2022-10-20T05:26:10;2.08;;;1.73;;
64085;SDS011;50333;47.436;21.390;2022-10-20T05:28:43;2.97;;;1.95;;
64085;SDS011;50333;47.436;21.390;2022-10-20T05:31:14;3.90;;;1.90;;
64085;SDS011;50333;47.436;21.390;2022-10-20T05:33:43;2.17;;;1.67;;
64085;SDS011;50333;47.436;21.390;2022-10-20T05:36:13;4.32;;;2.40;;
64085;SDS011;50333;47.436;21.390;2022-10-20T05:38:48;5.78;;;3.20;;
64085;SDS011;50333;47.436;21.390;2022-10-20T05:41:19;7.32;;;2.12;;
64085;SDS011;50333;47.436;21.390;2022-10-20T05:43:49;3.47;;;2.37;;
64085;SDS011;50333;47.436;21.390;2022-10-20T05:46:25;3.00;;;1.75;;
64085;SDS011;50333;47.436;21.390;2022-10-20T05:51:27;9.02;;;2.25;;
64085;SDS011;50333;47.436;21.390;2022-10-20T05:53:58;5.93;;;2.03;;
64085;SDS011;50333;47.436;21.390;2022-10-20T05:56:27;2.08;;;1.87;;
64085;SDS011;50333;47.436;21.390;2022-10-20T05:58:56;5.07;;;1.77;;
64085;SDS011;50333;47.436;21.390;2022-10-20T06:01:30;12.37;;;1.60;;
64085;SDS011;50333;47.436;21.390;2022-10-20T06:06:57;3.05;;;1.80;;
64085;SDS011;50333;47.436;21.390;2022-10-20T06:09:24;7.50;;;1.60;;
64085;SDS011;50333;47.436;21.390;2022-10-20T06:11:52;4.30;;;1.95;;
64085;SDS011;50333;47.436;21.390;2022-10-20T06:14:20;3.17;;;1.77;;
64085;SDS011;50333;47.436;21.390;2022-10-20T06:16:49;2.45;;;1.73;;
64085;SDS011;50333;47.436;21.390;2022-10-20T06:19:18;7.05;;;2.00;;
64085;SDS011;50333;47.436;21.390;2022-10-20T06:21:46;2.42;;;1.62;;
64085;SDS011;50333;47.436;21.390;2022-10-20T06:24:16;2.25;;;1.90;;
64085;SDS011;50333;47.436;21.390;2022-10-20T06:26:45;3.50;;;1.60;;
64085;SDS011;50333;47.436;21.390;2022-10-20T06:29:14;3.08;;;1.90;;
64085;SDS011;50333;47.436;21.390;2022-10-20T06:31:45;2.85;;;1.90;;
64085;SDS011;50333;47.436;21.390;2022-10-20T06:34:19;1.95;;;1.77;;
64085;SDS011;50333;47.436;21.390;2022-10-20T06:36:49;3.60;;;1.80;;
64085;SDS011;50333;47.436;21.390;2022-10-20T06:39:20;7.15;;;1.77;;
64085;SDS011;50333;47.436;21.390;2022-10-20T06:41:50;5.65;;;1.83;;
64085;SDS011;50333;47.436;21.390;2022-10-20T06:44:20;2.83;;;1.65;;
64085;SDS011;50333;47.436;21.390;2022-10-20T06:46:50;7.40;;;2.13;;
64085;SDS011;50333;47.436;21.390;2022-10-20T06:49:21;2.37;;;1.85;;
64085;SDS011;50333;47.436;21.390;2022-10-20T06:51:49;3.25;;;2.10;;
64085;SDS011;50333;47.436;21.390;2022-10-20T06:54:17;3.03;;;1.70;;
64085;SDS011;50333;47.436;21.390;2022-10-20T06:56:45;4.68;;;1.80;;
64085;SDS011;50333;47.436;21.390;2022-10-20T06:59:12;6.47;;;1.75;;
64085;SDS011;50333;47.436;21.390;2022-10-20T07:01:40;4.18;;;1.98;;
64085;SDS011;50333;47.436;21.390;2022-10-20T07:04:14;4.18;;;2.03;;
64085;SDS011;50333;47.436;21.390;2022-10-20T07:06:43;4.12;;;1.40;;
64085;SDS011;50333;47.436;21.390;2022-10-20T07:09:16;2.33;;;1.50;;
64085;SDS011;50333;47.436;21.390;2022-10-20T07:11:49;3.83;;;1.95;;
64085;SDS011;50333;47.436;21.390;2022-10-20T07:14:18;3.17;;;1.40;;
64085;SDS011;50333;47.436;21.390;2022-10-20T07:16:46;5.10;;;1.95;;
64085;SDS011;50333;47.436;21.390;2022-10-20T07:19:14;2.75;;;1.70;;
64085;SDS011;50333;47.436;21.390;2022-10-20T07:21:41;6.40;;;1.67;;
64085;SDS011;50333;47.436;21.390;2022-10-20T07:24:12;2.13;;;1.57;;
64085;SDS011;50333;47.436;21.390;2022-10-20T07:26:41;2.60;;;1.70;;
64085;SDS011;50333;47.436;21.390;2022-10-20T07:29:10;2.08;;;1.52;;
64085;SDS011;50333;47.436;21.390;2022-10-20T07:31:40;6.35;;;1.60;;
64085;SDS011;50333;47.436;21.390;2022-10-20T07:36:52;6.72;;;1.85;;
64085;SDS011;50333;47.436;21.390;2022-10-20T07:39:21;16.42;;;6.65;;
64085;SDS011;50333;47.436;21.390;2022-10-20T07:41:49;19.60;;;8.40;;
64085;SDS011;50333;47.436;21.390;2022-10-20T07:44:17;6.62;;;3.50;;
64085;SDS011;50333;47.436;21.390;2022-10-20T07:46:45;36.38;;;17.80;;
64085;SDS011;50333;47.436;21.390;2022-10-20T07:49:12;10.65;;;5.60;;
64085;SDS011;50333;47.436;21.390;2022-10-20T07:52:00;13.75;;;7.12;;
64085;SDS011;50333;47.436;21.390;2022-10-20T07:54:28;39.60;;;22.45;;
64085;SDS011;50333;47.436;21.390;2022-10-20T07:56:56;11.12;;;6.75;;
64085;SDS011;50333;47.436;21.390;2022-10-20T07:59:24;6.95;;;4.43;;
64085;SDS011;50333;47.436;21.390;2022-10-20T08:01:52;3.90;;;2.05;;
64085;SDS011;50333;47.436;21.390;2022-10-20T08:04:25;7.55;;;5.12;;
64085;SDS011;50333;47.436;21.390;2022-10-20T08:06:53;7.40;;;4.35;;
64085;SDS011;50333;47.436;21.390;2022-10-20T08:09:21;21.70;;;11.10;;
64085;SDS011;50333;47.436;21.390;2022-10-20T08:11:48;15.85;;;9.68;;
64085;SDS011;50333;47.436;21.390;2022-10-20T08:14:21;13.18;;;7.57;;
64085;SDS011;50333;47.436;21.390;2022-10-20T08:16:53;11.82;;;5.85;;
64085;SDS011;50333;47.436;21.390;2022-10-20T08:19:21;5.53;;;1.40;;
64085;SDS011;50333;47.436;21.390;2022-10-20T08:22:06;5.30;;;3.37;;
64085;SDS011;50333;47.436;21.390;2022-10-20T08:24:34;18.00;;;10.02;;
64085;SDS011;50333;47.436;21.390;2022-10-20T08:27:01;13.68;;;8.15;;
64085;SDS011;50333;47.436;21.390;2022-10-20T08:29:30;15.77;;;8.07;;
64085;SDS011;50333;47.436;21.390;2022-10-20T08:31:57;6.70;;;4.03;;
64085;SDS011;50333;47.436;21.390;2022-10-20T08:34:25;5.43;;;4.43;;
64085;SDS011;50333;47.436;21.390;2022-10-20T08:36:53;20.80;;;12.13;;
64085;SDS011;50333;47.436;21.390;2022-10-20T08:39:21;5.90;;;3.87;;
64085;SDS011;50333;47.436;21.390;2022-10-20T08:41:49;10.88;;;6.70;;
64085;SDS011;50333;47.436;21.390;2022-10-20T08:44:34;1.90;;;1.08;;
64085;SDS011;50333;47.436;21.390;2022-10-20T08:47:10;4.12;;;2.92;;
64085;SDS011;50333;47.436;21.390;2022-10-20T08:49:43;4.05;;;1.17;;
64085;SDS011;50333;47.436;21.390;2022-10-20T08:52:12;5.10;;;2.67;;
64085;SDS011;50333;47.436;21.390;2022-10-20T08:54:43;5.97;;;2.20;;
64085;SDS011;50333;47.436;21.390;2022-10-20T08:57:17;2.92;;;2.00;;
64085;SDS011;50333;47.436;21.390;2022-10-20T09:00:14;4.65;;;1.62;;
64085;SDS011;50333;47.436;21.390;2022-10-20T09:02:47;3.60;;;1.20;;
64085;SDS011;50333;47.436;21.390;2022-10-20T09:05:18;2.28;;;1.27;;
64085;SDS011;50333;47.436;21.390;2022-10-20T09:07:50;1.50;;;1.10;;
64085;SDS011;50333;47.436;21.390;2022-10-20T09:12:54;0.85;;;0.85;;
64085;SDS011;50333;47.436;21.390;2022-10-20T09:15:22;1.80;;;1.00;;
64085;SDS011;50333;47.436;21.390;2022-10-20T09:17:54;3.28;;;1.20;;
64085;SDS011;50333;47.436;21.390;2022-10-20T09:20:33;1.77;;;1.00;;
64085;SDS011;50333;47.436;21.390;2022-10-20T09:23:11;2.05;;;1.10;;
64085;SDS011;50333;47.436;21.390;2022-10-20T09:26:01;1.20;;;1.00;;
64085;SDS011;50333;47.436;21.390;2022-10-20T09:28:29;3.42;;;1.00;;
64085;SDS011;50333;47.436;21.390;2022-10-20T09:31:30;1.65;;;1.10;;
64085;SDS011;50333;47.436;21.390;2022-10-20T09:34:00;1.45;;;0.90;;
64085;SDS011;50333;47.436;21.390;2022-10-20T09:36:29;1.40;;;0.95;;
64085;SDS011;50333;47.436;21.390;2022-10-20T09:39:00;2.83;;;1.12;;
64085;SDS011;50333;47.436;21.390;2022-10-20T09:41:29;1.27;;;1.05;;
64085;SDS011;50333;47.436;21.390;2022-10-20T09:44:02;2.58;;;1.02;;
64085;SDS011;50333;47.436;21.390;2022-10-20T09:46:38;1.52;;;1.00;;
64085;SDS011;50333;47.436;21.390;2022-10-20T09:49:21;1.58;;;0.98;;
64085;SDS011;50333;47.436;21.390;2022-10-20T09:52:18;3.80;;;1.00;;
64085;SDS011;50333;47.436;21.390;2022-10-20T09:54:50;4.05;;;1.12;;
64085;SDS011;50333;47.436;21.390;2022-10-20T09:57:22;1.80;;;1.05;;
64085;SDS011;50333;47.436;21.390;2022-10-20T09:59:58;2.40;;;1.00;;
64085;SDS011;50333;47.436;21.390;2022-10-20T10:02:35;3.55;;;1.08;;
64085;SDS011;50333;47.436;21.390;2022-10-20T10:05:13;5.57;;;1.30;;
64085;SDS011;50333;47.436;21.390;2022-10-20T10:07:56;6.62;;;1.20;;
64085;SDS011;50333;47.436;21.390;2022-10-20T10:12:58;17.87;;;8.57;;
64085;SDS011;50333;47.436;21.390;2022-10-20T10:15:29;1.67;;;1.25;;
64085;SDS011;50333;47.436;21.390;2022-10-20T10:17:59;1.73;;;0.90;;
64085;SDS011;50333;47.436;21.390;2022-10-20T10:20:42;1.67;;;0.95;;
64085;SDS011;50333;47.436;21.390;2022-10-20T10:23:29;1.30;;;0.90;;
64085;SDS011;50333;47.436;21.390;2022-10-20T10:25:59;1.48;;;1.02;;
64085;SDS011;50333;47.436;21.390;2022-10-20T10:28:34;1.53;;;1.10;;
64085;SDS011;50333;47.436;21.390;2022-10-20T10:33:59;1.20;;;1.10;;
64085;SDS011;50333;47.436;21.390;2022-10-20T10:36:48;3.08;;;0.90;;
64085;SDS011;50333;47.436;21.390;2022-10-20T10:39:16;1.00;;;0.90;;
64085;SDS011;50333;47.436;21.390;2022-10-20T10:47:22;6.35;;;0.95;;
64085;SDS011;50333;47.436;21.390;2022-10-20T11:12:41;13.90;;;5.57;;
64085;SDS011;50333;47.436;21.390;2022-10-20T11:15:51;1.40;;;0.80;;
64085;SDS011;50333;47.436;21.390;2022-10-20T11:24:27;0.70;;;0.70;;
64085;SDS011;50333;47.436;21.390;2022-10-20T11:27:41;0.88;;;0.88;;
64085;SDS011;50333;47.436;21.390;2022-10-20T11:29:57;7.20;;;3.90;;
64085;SDS011;50333;47.436;21.390;2022-10-20T11:35:51;3.65;;;1.00;;
64085;SDS011;50333;47.436;21.390;2022-10-20T11:38:25;3.17;;;1.02;;
64085;SDS011;50333;47.436;21.390;2022-10-20T11:41:03;2.85;;;0.82;;
64085;SDS011;50333;47.436;21.390;2022-10-20T11:46:20;1.77;;;1.20;;
64085;SDS011;50333;47.436;21.390;2022-10-20T11:49:07;2.65;;;1.10;;
64085;SDS011;50333;47.436;21.390;2022-10-20T12:02:49;3.05;;;1.20;;
64085;SDS011;50333;47.436;21.390;2022-10-20T12:19:21;1.57;;;0.90;;
64085;SDS011;50333;47.436;21.390;2022-10-20T12:34:54;2.75;;;1.20;;
64085;SDS011;50333;47.436;21.390;2022-10-20T12:37:30;1.15;;;1.02;;
64085;SDS011;50333;47.436;21.390;2022-10-20T12:47:35;3.35;;;1.30;;
64085;SDS011;50333;47.436;21.390;2022-10-20T12:55:45;4.05;;;1.00;;
64085;SDS011;50333;47.436;21.390;2022-10-20T13:06:45;1.00;;;0.80;;
64085;SDS011;50333;47.436;21.390;2022-10-20T13:16:44;1.08;;;0.98;;
64085;SDS011;50333;47.436;21.390;2022-10-20T13:19:19;1.95;;;1.30;;
64085;SDS011;50333;47.436;21.390;2022-10-20T13:21:52;2.58;;;1.00;;
64085;SDS011;50333;47.436;21.390;2022-10-20T13:24:24;6.97;;;1.10;;
64085;SDS011;50333;47.436;21.390;2022-10-20T13:27:00;1.83;;;0.90;;
64085;SDS011;50333;47.436;21.390;2022-10-20T13:29:38;6.05;;;1.25;;
64085;SDS011;50333;47.436;21.390;2022-10-20T13:32:13;14.25;;;10.05;;
64085;SDS011;50333;47.436;21.390;2022-10-20T13:34:48;14.02;;;12.57;;
64085;SDS011;50333;47.436;21.390;2022-10-20T13:52:19;7.78;;;1.50;;
64085;SDS011;50333;47.436;21.390;2022-10-20T13:54:48;1.85;;;1.20;;
64085;SDS011;50333;47.436;21.390;2022-10-20T13:57:27;2.12;;;1.27;;
64085;SDS011;50333;47.436;21.390;2022-10-20T14:00:00;4.85;;;1.48;;
64085;SDS011;50333;47.436;21.390;2022-10-20T14:02:33;4.62;;;1.50;;
64085;SDS011;50333;47.436;21.390;2022-10-20T14:07:37;4.40;;;1.08;;
64085;SDS011;50333;47.436;21.390;2022-10-20T14:10:28;4.22;;;2.17;;
64085;SDS011;50333;47.436;21.390;2022-10-20T14:13:06;3.30;;;1.50;;
64085;SDS011;50333;47.436;21.390;2022-10-20T14:15:35;4.82;;;2.10;;
64085;SDS011;50333;47.436;21.390;2022-10-20T14:18:04;23.25;;;17.58;;
64085;SDS011;50333;47.436;21.390;2022-10-20T14:20:35;6.17;;;3.70;;
64085;SDS011;50333;47.436;21.390;2022-10-20T14:23:08;1.80;;;1.10;;
64085;SDS011;50333;47.436;21.390;2022-10-20T14:25:37;1.48;;;1.20;;
64085;SDS011;50333;47.436;21.390;2022-10-20T14:28:06;1.35;;;1.10;;
64085;SDS011;50333;47.436;21.390;2022-10-20T14:30:46;3.35;;;1.30;;
64085;SDS011;50333;47.436;21.390;2022-10-20T14:33:16;3.83;;;1.90;;
64085;SDS011;50333;47.436;21.390;2022-10-20T14:35:54;7.75;;;1.27;;
64085;SDS011;50333;47.436;21.390;2022-10-20T14:38:28;8.47;;;1.53;;
64085;SDS011;50333;47.436;21.390;2022-10-20T14:41:05;18.98;;;1.80;;
64085;SDS011;50333;47.436;21.390;2022-10-20T14:43:42;6.90;;;1.80;;
64085;SDS011;50333;47.436;21.390;2022-10-20T14:46:21;2.67;;;1.33;;
64085;SDS011;50333;47.436;21.390;2022-10-20T14:48:54;3.70;;;1.00;;
64085;SDS011;50333;47.436;21.390;2022-10-20T14:51:39;1.08;;;1.05;;
64085;SDS011;50333;47.436;21.390;2022-10-20T14:54:30;3.33;;;1.12;;
64085;SDS011;50333;47.436;21.390;2022-10-20T14:57:00;3.72;;;3.10;;
64085;SDS011;50333;47.436;21.390;2022-10-20T14:59:35;7.93;;;1.83;;
64085;SDS011;50333;47.436;21.390;2022-10-20T15:02:25;4.43;;;2.08;;
64085;SDS011;50333;47.436;21.390;2022-10-20T15:04:55;3.58;;;2.17;;
64085;SDS011;50333;47.436;21.390;2022-10-20T15:07:27;5.43;;;1.17;;
64085;SDS011;50333;47.436;21.390;2022-10-20T15:10:06;2.65;;;1.30;;
64085;SDS011;50333;47.436;21.390;2022-10-20T15:12:41;4.03;;;1.40;;
64085;SDS011;50333;47.436;21.390;2022-10-20T15:22:58;5.12;;;1.48;;
64085;SDS011;50333;47.436;21.390;2022-10-20T15:25:27;3.25;;;1.62;;
64085;SDS011;50333;47.436;21.390;2022-10-20T15:27:57;5.65;;;1.50;;
64085;SDS011;50333;47.436;21.390;2022-10-20T15:30:26;3.15;;;1.12;;
64085;SDS011;50333;47.436;21.390;2022-10-20T15:32:54;4.05;;;1.27;;
64085;SDS011;50333;47.436;21.390;2022-10-20T15:35:21;1.95;;;1.20;;
64085;SDS011;50333;47.436;21.390;2022-10-20T15:37:51;8.85;;;2.80;;
64085;SDS011;50333;47.436;21.390;2022-10-20T15:40:21;12.05;;;2.70;;
64085;SDS011;50333;47.436;21.390;2022-10-20T15:42:49;7.53;;;2.00;;
64085;SDS011;50333;47.436;21.390;2022-10-20T15:45:17;5.95;;;2.30;;
64085;SDS011;50333;47.436;21.390;2022-10-20T15:47:47;3.62;;;2.10;;
64085;SDS011;50333;47.436;21.390;2022-10-20T15:50:16;3.90;;;2.25;;
64085;SDS011;50333;47.436;21.390;2022-10-20T15:52:50;8.65;;;3.03;;
64085;SDS011;50333;47.436;21.390;2022-10-20T15:55:34;5.72;;;2.83;;
64085;SDS011;50333;47.436;21.390;2022-10-20T15:58:05;5.37;;;2.70;;
64085;SDS011;50333;47.436;21.390;2022-10-20T16:00:32;16.08;;;5.72;;
64085;SDS011;50333;47.436;21.390;2022-10-20T16:03:01;10.75;;;4.62;;
64085;SDS011;50333;47.436;21.390;2022-10-20T16:05:28;14.00;;;5.50;;
64085;SDS011;50333;47.436;21.390;2022-10-20T16:07:56;12.13;;;5.70;;
64085;SDS011;50333;47.436;21.390;2022-10-20T16:10:28;14.30;;;5.10;;
64085;SDS011;50333;47.436;21.390;2022-10-20T16:13:16;22.80;;;5.55;;
64085;SDS011;50333;47.436;21.390;2022-10-20T16:16:07;23.00;;;6.65;;
64085;SDS011;50333;47.436;21.390;2022-10-20T16:21:46;12.57;;;5.97;;
64085;SDS011;50333;47.436;21.390;2022-10-20T16:24:34;19.92;;;7.37;;
64085;SDS011;50333;47.436;21.390;2022-10-20T16:27:21;26.25;;;8.20;;
64085;SDS011;50333;47.436;21.390;2022-10-20T16:30:09;34.53;;;15.90;;
64085;SDS011;50333;47.436;21.390;2022-10-20T16:32:57;39.10;;;14.80;;
64085;SDS011;50333;47.436;21.390;2022-10-20T16:35:24;34.55;;;16.00;;
64085;SDS011;50333;47.436;21.390;2022-10-20T16:37:52;30.65;;;15.50;;
64085;SDS011;50333;47.436;21.390;2022-10-20T16:40:20;29.63;;;14.50;;
64085;SDS011;50333;47.436;21.390;2022-10-20T16:42:48;25.45;;;14.38;;
64085;SDS011;50333;47.436;21.390;2022-10-20T16:45:16;38.78;;;17.85;;
64085;SDS011;50333;47.436;21.390;2022-10-20T16:47:43;44.00;;;18.37;;
64085;SDS011;50333;47.436;21.390;2022-10-20T16:50:12;40.38;;;19.37;;
64085;SDS011;50333;47.436;21.390;2022-10-20T16:52:39;43.38;;;20.27;;
64085;SDS011;50333;47.436;21.390;2022-10-20T16:55:10;40.75;;;21.00;;
64085;SDS011;50333;47.436;21.390;2022-10-20T16:57:38;46.20;;;21.75;;
64085;SDS011;50333;47.436;21.390;2022-10-20T17:00:07;40.17;;;21.67;;
64085;SDS011;50333;47.436;21.390;2022-10-20T17:02:35;40.20;;;20.60;;
64085;SDS011;50333;47.436;21.390;2022-10-20T17:05:03;45.47;;;20.25;;
64085;SDS011;50333;47.436;21.390;2022-10-20T17:07:36;44.78;;;20.73;;
64085;SDS011;50333;47.436;21.390;2022-10-20T17:10:04;43.70;;;20.15;;
64085;SDS011;50333;47.436;21.390;2022-10-20T17:12:32;49.00;;;23.70;;
64085;SDS011;50333;47.436;21.390;2022-10-20T17:15:00;45.50;;;21.75;;
64085;SDS011;50333;47.436;21.390;2022-10-20T17:17:28;47.62;;;26.30;;
64085;SDS011;50333;47.436;21.390;2022-10-20T17:19:56;51.58;;;26.20;;
64085;SDS011;50333;47.436;21.390;2022-10-20T17:22:24;52.97;;;24.83;;
64085;SDS011;50333;47.436;21.390;2022-10-20T17:24:52;36.90;;;19.33;;
64085;SDS011;50333;47.436;21.390;2022-10-20T17:27:20;30.42;;;14.82;;
64085;SDS011;50333;47.436;21.390;2022-10-20T17:29:48;36.65;;;14.60;;
64085;SDS011;50333;47.436;21.390;2022-10-20T17:32:15;37.88;;;18.25;;
64085;SDS011;50333;47.436;21.390;2022-10-20T17:34:44;45.60;;;18.55;;
64085;SDS011;50333;47.436;21.390;2022-10-20T17:37:12;48.53;;;19.12;;
64085;SDS011;50333;47.436;21.390;2022-10-20T17:39:40;44.38;;;19.27;;
64085;SDS011;50333;47.436;21.390;2022-10-20T17:42:08;33.13;;;18.10;;
64085;SDS011;50333;47.436;21.390;2022-10-20T17:44:36;32.63;;;16.60;;
64085;SDS011;50333;47.436;21.390;2022-10-20T17:47:04;45.80;;;15.98;;
64085;SDS011;50333;47.436;21.390;2022-10-20T17:49:31;35.67;;;17.25;;
64085;SDS011;50333;47.436;21.390;2022-10-20T17:52:00;33.92;;;18.45;;
64085;SDS011;50333;47.436;21.390;2022-10-20T17:54:27;43.67;;;18.30;;
64085;SDS011;50333;47.436;21.390;2022-10-20T17:56:55;41.42;;;18.42;;